Time;durP1;ratioP1;P1;durP2;ratioP2;P2;SDS_P1;SDS_P2;PMS_P1;PMS_P2;Temp;Humidity;BMP_temperature;BMP_pressure;BME280_temperature;BME280_humidity;BME280_pressure;Samples;Min_cycle;Max_cycle;Signal;HPM_P1;HPM_P2
2022/09/12 00:01:35;;;;;;;5.00;1.37;;;;;;;14.15;85.39;95206.73;1718637;83;21003;-66
2022/09/12 00:04:02;;;;;;;3.15;1.80;;;;;;;14.15;85.39;95206.73;1718522;83;21038;-66
2022/09/12 00:06:34;;;;;;;3.05;2.25;;;;;;;14.22;85.27;95210.89;1718764;83;21019;-65
2022/09/12 00:09:08;;;;;;;5.47;3.52;;;;;;;14.39;84.94;95212.89;1718760;83;21074;-65
2022/09/12 00:11:44;;;;;;;2.90;1.70;;;;;;;14.38;85.33;95205.84;1718784;83;21039;-65
2022/09/12 00:14:15;;;;;;;2.17;1.42;;;;;;;14.47;84.82;95210.78;1718590;83;21045;-65
2022/09/12 00:16:42;;;;;;;2.65;1.55;;;;;;;14.47;84.82;95210.78;1718722;83;20983;-65
2022/09/12 00:19:10;;;;;;;3.65;1.90;;;;;;;14.47;84.13;95204.15;1718627;83;21015;-65
2022/09/12 00:21:39;;;;;;;2.65;1.70;;;;;;;14.43;84.21;95201.20;1718623;83;21054;-65
2022/09/12 00:24:08;;;;;;;1.40;1.30;;;;;;;14.49;84.57;95198.80;1718843;83;21058;-65
2022/09/12 00:26:35;;;;;;;3.12;1.47;;;;;;;14.53;84.54;95187.58;1718761;83;21094;-65
2022/09/12 00:29:02;;;;;;;3.60;1.60;;;;;;;14.55;83.76;95195.05;1718812;83;21062;-65
2022/09/12 00:31:29;;;;;;;2.77;1.87;;;;;;;14.39;83.59;95188.11;1718460;83;21492;-65
2022/09/12 00:33:59;;;;;;;2.02;1.60;;;;;;;14.34;83.86;95187.43;1718956;83;20960;-65
2022/09/12 00:36:28;;;;;;;3.02;1.52;;;;;;;14.35;84.66;95192.69;1718431;83;21920;-66
2022/09/12 00:38:54;;;;;;;3.92;1.65;;;;;;;14.39;85.05;95198.73;1718655;83;21504;-66
2022/09/12 00:41:29;;;;;;;1.92;1.40;;;;;;;14.39;85.05;95198.73;1718780;83;21556;-67
2022/09/12 00:44:13;;;;;;;1.50;1.40;;;;;;;14.45;84.63;95202.48;1718135;83;21015;-65
2022/09/12 00:47:03;;;;;;;2.65;1.80;;;;;;;14.45;84.65;95199.36;1718667;83;21046;-66
2022/09/12 00:49:40;;;;;;;3.72;1.60;;;;;;;14.40;84.68;95202.66;1718647;83;21046;-67
2022/09/12 00:52:12;;;;;;;2.17;1.47;;;;;;;14.46;84.94;95197.56;1717536;83;21075;-67
2022/09/12 00:54:50;;;;;;;2.80;1.30;;;;;;;14.53;84.85;95194.21;1711536;83;20984;-66
2022/09/12 00:57:20;;;;;;;1.70;1.12;;;;;;;14.52;83.79;95198.66;1718419;83;21276;-67
2022/09/12 00:59:52;;;;;;;2.80;1.05;;;;;;;14.49;84.13;95197.47;1718542;83;21066;-66
2022/09/12 01:02:18;;;;;;;0.93;0.90;;;;;;;14.49;84.13;95197.47;1718712;83;21018;-66
2022/09/12 01:04:46;;;;;;;5.12;1.40;;;;;;;14.45;83.36;95195.38;1718606;83;21071;-66
2022/09/12 01:07:14;;;;;;;2.27;1.20;;;;;;;14.47;84.34;95196.66;1718617;83;21019;-66
2022/09/12 01:09:44;;;;;;;3.05;1.60;;;;;;;14.42;83.79;95201.29;1718654;83;20971;-67
2022/09/12 01:12:13;;;;;;;2.27;1.10;;;;;;;14.43;84.70;95199.02;1718734;83;21568;-67
2022/09/12 01:14:40;;;;;;;1.45;1.17;;;;;;;14.49;84.49;95198.80;1718680;83;20995;-67
2022/09/12 01:17:06;;;;;;;2.92;1.40;;;;;;;14.46;84.61;95198.89;1718688;83;21507;-67
2022/09/12 01:19:48;;;;;;;3.15;1.45;;;;;;;14.49;84.42;95198.80;1690271;83;20995;-67
2022/09/12 01:22:41;;;;;;;1.92;1.27;;;;;;;14.54;84.30;95206.14;1718729;83;21006;-67
2022/09/12 01:25:30;;;;;;;4.92;1.15;;;;;;;14.47;84.18;95209.93;1701583;83;20967;-67
2022/09/12 01:28:19;;;;;;;2.45;1.32;;;;;;;14.37;83.47;95207.24;1719196;83;21015;-67
2022/09/12 01:31:15;;;;;;;1.37;1.27;;;;;;;14.36;83.87;95206.82;1718626;83;21485;-67
2022/09/12 01:33:59;;;;;;;2.98;1.40;;;;;;;14.32;83.46;95205.23;1718709;83;21011;-66
2022/09/12 01:36:58;;;;;;;4.92;1.57;;;;;;;14.25;83.90;95205.45;1718684;83;21027;-67
2022/09/12 01:39:36;;;;;;;4.00;1.00;;;;;;;14.19;83.54;95202.20;1682765;83;21000;-67
2022/09/12 01:42:33;;;;;;;1.47;0.90;;;;;;;14.18;83.79;95200.45;1712986;83;21740;-67
2022/09/12 01:45:33;;;;;;;1.82;1.10;;;;;;;14.22;84.84;95206.05;1718672;83;21039;-67
2022/09/12 01:48:13;;;;;;;4.55;1.62;;;;;;;14.24;84.91;95195.78;1718756;83;21015;-67
2022/09/12 01:51:07;;;;;;;2.70;1.00;;;;;;;14.29;84.70;95191.16;1718425;83;21042;-67
2022/09/12 01:53:44;;;;;;;1.62;1.17;;;;;;;14.29;84.54;95196.46;1718397;83;21023;-67
2022/09/12 01:56:22;;;;;;;1.67;1.02;;;;;;;14.35;84.28;95188.71;1718711;83;21043;-67
2022/09/12 01:59:08;;;;;;;1.30;1.20;;;;;;;14.38;84.29;95193.03;1718384;83;21038;-68
2022/09/12 02:01:53;;;;;;;1.35;1.10;;;;;;;14.38;83.85;95197.02;1718691;83;21035;-67
2022/09/12 02:04:25;;;;;;;2.83;1.20;;;;;;;14.39;83.81;95200.95;1718913;83;21552;-67
2022/09/12 02:07:09;;;;;;;2.40;1.17;;;;;;;14.41;83.56;95203.52;1718347;83;21094;-67
2022/09/12 02:09:44;;;;;;;1.22;1.12;;;;;;;14.36;83.25;95202.84;1717962;83;21066;-67
2022/09/12 02:12:15;;;;;;;3.77;1.65;;;;;;;14.31;83.92;95203.02;1718797;83;21066;-67
2022/09/12 02:14:47;;;;;;;3.40;1.40;;;;;;;14.22;83.86;95207.37;1718527;83;21053;-67
2022/09/12 02:17:19;;;;;;;1.90;1.60;;;;;;;14.22;83.86;95207.37;1718617;83;21022;-66
2022/09/12 02:20:06;;;;;;;2.50;1.52;;;;;;;14.17;83.37;95210.20;1717643;83;21560;-66
2022/09/12 02:22:36;;;;;;;2.15;1.57;;;;;;;14.12;83.78;95205.53;1685543;83;21011;-67
2022/09/12 02:25:06;;;;;;;1.85;1.75;;;;;;;14.12;84.27;95210.84;1718937;83;21524;-67
2022/09/12 02:27:40;;;;;;;3.08;1.77;;;;;;;14.11;84.10;95209.56;1718750;83;21066;-67
2022/09/12 02:30:09;;;;;;;3.58;1.80;;;;;;;14.08;84.09;95223.81;1718630;83;21003;-67
2022/09/12 02:32:44;;;;;;;2.87;2.40;;;;;;;14.01;83.85;95226.29;1718854;83;21129;-67
2022/09/12 02:35:33;;;;;;;2.90;2.58;;;;;;;13.96;83.67;95218.53;1718721;83;21054;-67
2022/09/12 02:38:06;;;;;;;3.10;2.85;;;;;;;13.91;83.49;95223.15;1718913;83;21023;-67
2022/09/12 02:40:34;;;;;;;4.12;2.83;;;;;;;13.84;83.62;95216.34;1717825;83;21019;-67
2022/09/12 02:43:04;;;;;;;3.85;2.95;;;;;;;13.80;83.75;95225.31;1690384;83;21022;-65
2022/09/12 02:45:33;;;;;;;5.37;2.98;;;;;;;13.72;83.96;95225.60;1718616;83;20998;-65
2022/09/12 02:48:08;;;;;;;5.00;3.65;;;;;;;13.61;83.89;95226.47;1718746;83;21002;-64
2022/09/12 02:50:35;;;;;;;3.77;3.27;;;;;;;13.52;83.83;95232.95;1718595;83;21042;-64
2022/09/12 02:53:04;;;;;;;4.97;3.72;;;;;;;13.45;83.73;95239.38;1690917;83;21481;-64
2022/09/12 02:55:33;;;;;;;5.55;3.17;;;;;;;13.38;83.55;95242.73;1718927;83;21014;-64
2022/09/12 02:58:07;;;;;;;4.72;3.70;;;;;;;13.35;83.61;95248.58;1718716;83;21501;-64
2022/09/12 03:00:48;;;;;;;4.67;3.67;;;;;;;13.34;83.79;95253.48;1718530;83;21477;-64
2022/09/12 03:03:48;;;;;;;5.62;3.70;;;;;;;13.32;83.56;95259.30;1716273;83;21099;-64
2022/09/12 03:06:59;;;;;;;4.92;3.58;;;;;;;13.31;83.72;95256.25;1682767;85;20984;-64
2022/09/12 03:10:00;;;;;;;4.90;3.73;;;;;;;13.28;83.62;95251.92;1717515;83;21024;-64
2022/09/12 03:12:38;;;;;;;5.67;3.58;;;;;;;13.28;83.67;95262.52;1753698;82;21046;-67
2022/09/12 03:15:35;;;;;;;4.30;3.35;;;;;;;13.22;83.58;95269.30;1754465;82;21034;-67
2022/09/12 03:18:26;;;;;;;4.22;3.10;;;;;;;13.20;83.69;95273.78;1754427;82;21034;-68
2022/09/12 03:21:13;;;;;;;5.35;2.75;;;;;;;13.18;84.01;95267.70;1751997;82;21054;-67
2022/09/12 03:24:03;;;;;;;3.17;2.58;;;;;;;13.18;83.66;95271.67;1754419;82;21504;-67
2022/09/12 03:26:35;;;;;;;3.75;2.85;;;;;;;13.16;83.13;95269.06;1754497;81;21524;-67
2022/09/12 03:29:05;;;;;;;3.40;3.10;;;;;;;13.07;82.95;95277.77;1754810;82;21018;-67
2022/09/12 03:31:32;;;;;;;4.33;2.72;;;;;;;13.07;82.95;95277.77;1754331;82;21014;-67
2022/09/12 03:33:59;;;;;;;3.80;2.60;;;;;;;13.05;83.08;95276.48;1754262;82;20986;-66
2022/09/12 03:36:28;;;;;;;2.65;2.45;;;;;;;13.01;83.07;95277.98;1754336;82;21046;-66
2022/09/12 03:38:56;;;;;;;3.60;2.85;;;;;;;12.92;82.77;95277.81;1754459;82;20987;-67
2022/09/12 03:41:22;;;;;;;3.00;2.70;;;;;;;12.86;83.47;95280.67;1754685;82;21468;-66
2022/09/12 03:43:49;;;;;;;2.72;2.10;;;;;;;12.91;83.69;95285.36;1754260;82;21010;-67
2022/09/12 03:46:15;;;;;;;2.30;2.00;;;;;;;12.87;83.32;95284.58;1754276;82;21049;-67
2022/09/12 03:48:42;;;;;;;3.35;1.80;;;;;;;12.78;82.74;95295.48;1754697;82;21472;-67
2022/09/12 03:51:10;;;;;;;2.92;1.98;;;;;;;12.72;83.61;95293.88;1754247;82;21058;-67
2022/09/12 03:53:37;;;;;;;1.95;1.77;;;;;;;12.71;83.46;95300.09;1754202;82;21014;-68
2022/09/12 03:56:12;;;;;;;4.05;2.25;;;;;;;12.71;82.90;95289.51;1754515;82;21007;-67
2022/09/12 03:58:39;;;;;;;1.98;1.77;;;;;;;12.63;82.12;95295.51;1754397;82;21006;-67
2022/09/12 04:01:12;;;;;;;6.17;2.05;;;;;;;12.56;83.13;95293.97;1759621;81;21015;-67
2022/09/12 04:03:42;;;;;;;2.90;2.35;;;;;;;12.56;83.19;95300.12;1726659;83;21030;-67
2022/09/12 04:06:12;;;;;;;7.80;2.83;;;;;;;12.64;82.74;95296.38;1726565;83;21523;-67
2022/09/12 04:08:39;;;;;;;3.72;2.05;;;;;;;12.54;81.20;95295.78;1726357;83;21022;-67
2022/09/12 04:11:13;;;;;;;3.37;2.47;;;;;;;12.45;81.04;95300.06;1726455;83;20994;-67
2022/09/12 04:13:42;;;;;;;2.72;2.42;;;;;;;12.45;81.66;95300.06;1726087;83;21326;-67
2022/09/12 04:16:11;;;;;;;3.12;2.60;;;;;;;12.49;82.13;95303.00;1726417;83;21007;-66
2022/09/12 04:18:38;;;;;;;3.77;2.58;;;;;;;12.56;82.48;95308.52;1726439;83;21046;-66
2022/09/12 04:21:07;;;;;;;4.78;2.75;;;;;;;12.61;82.56;95305.73;1726025;83;21011;-66
2022/09/12 04:23:34;;;;;;;3.05;2.70;;;;;;;12.56;81.99;95307.20;1726413;83;21022;-67
2022/09/12 04:26:05;;;;;;;5.87;2.50;;;;;;;12.53;82.53;95311.27;1726535;83;21464;-67
2022/09/12 04:28:33;;;;;;;2.90;2.50;;;;;;;12.56;83.27;95309.84;1726341;83;21559;-67
2022/09/12 04:31:04;;;;;;;3.77;2.65;;;;;;;12.61;82.80;95317.19;1726327;83;21033;-67
2022/09/12 04:33:31;;;;;;;2.90;2.40;;;;;;;12.61;82.53;95318.50;1726516;83;21030;-67
2022/09/12 04:36:04;;;;;;;5.12;2.70;;;;;;;12.55;82.18;95325.33;1726516;83;20958;-68
2022/09/12 04:38:31;;;;;;;;;;;;;;;12.53;82.82;95324.03;1729102;83;21017;-67
2022/09/12 04:40:57;;;;;;;5.33;4.03;;;;;;;12.65;83.24;95328.09;1708354;84;20114;-66
2022/09/12 04:43:24;;;;;;;3.75;3.45;;;;;;;12.63;82.27;95337.86;1708121;84;21021;-66
2022/09/12 04:45:50;;;;;;;5.08;3.95;;;;;;;12.56;82.74;95334.98;1708231;84;21052;-66
2022/09/12 04:48:17;;;;;;;5.28;3.40;;;;;;;12.62;83.33;95331.28;1708412;84;21084;-66
2022/09/12 04:50:44;;;;;;;4.58;3.77;;;;;;;12.66;83.33;95331.61;1708227;84;21035;-66
2022/09/12 04:53:11;;;;;;;3.80;3.50;;;;;;;12.63;82.63;95345.80;1708089;84;21040;-74
2022/09/12 04:55:37;;;;;;;5.53;3.55;;;;;;;12.54;83.46;95350.04;1708333;84;21521;-80
2022/09/12 04:58:04;;;;;;;7.03;3.12;;;;;;;12.59;83.88;95356.06;1707721;84;21478;-76
2022/09/12 05:00:31;;;;;;;4.20;3.17;;;;;;;12.65;83.83;95357.22;1705524;84;21099;-74
2022/09/12 05:02:57;;;;;;;5.20;3.30;;;;;;;12.65;83.21;95354.57;1678073;84;21001;-73
2022/09/12 05:05:24;;;;;;;4.37;3.00;;;;;;;12.68;83.55;95350.50;1704456;84;21036;-81
2022/09/12 05:07:50;;;;;;;7.15;3.30;;;;;;;12.77;83.84;95350.66;1703904;84;21122;-80
2022/09/12 05:10:17;;;;;;;3.90;3.27;;;;;;;12.84;83.46;95357.50;1704253;84;21075;-77
2022/09/12 05:12:44;;;;;;;6.03;3.30;;;;;;;12.89;83.35;95363.52;1703991;84;21130;-81
2022/09/12 05:15:10;;;;;;;4.75;3.30;;;;;;;12.93;82.34;95365.16;1704068;84;21012;-77
2022/09/12 05:17:37;;;;;;;4.20;3.20;;;;;;;12.90;82.20;95370.56;1704644;84;21016;-80
2022/09/12 05:20:04;;;;;;;3.50;3.20;;;;;;;12.84;82.05;95371.20;1705040;84;21526;-77
2022/09/12 05:22:30;;;;;;;6.33;3.90;;;;;;;12.80;82.79;95371.77;1703894;84;21072;-79
2022/09/12 05:24:57;;;;;;;3.90;3.37;;;;;;;12.73;81.93;95371.08;1704227;84;21119;-84
2022/09/12 05:27:24;;;;;;;4.00;3.60;;;;;;;12.68;82.78;95369.48;1704485;84;21007;-81
2022/09/12 05:29:50;;;;;;;5.35;3.35;;;;;;;12.62;84.34;95373.16;1704849;84;21020;-76
2022/09/12 05:32:17;;;;;;;4.03;3.30;;;;;;;12.64;83.89;95374.45;1704836;84;21035;-82
2022/09/12 05:34:44;;;;;;;8.35;4.00;;;;;;;12.61;83.66;95374.55;1704673;84;21067;-78
2022/09/12 05:37:11;;;;;;;8.35;3.58;;;;;;;12.62;83.93;95367.01;1704687;84;21059;-80
2022/09/12 05:39:38;;;;;;;4.33;3.17;;;;;;;12.67;83.78;95373.03;1705058;84;21558;-75
2022/09/12 05:42:05;;;;;;;5.83;3.30;;;;;;;12.71;83.76;95370.71;1704886;84;21019;-81
2022/09/12 05:44:32;;;;;;;3.72;3.42;;;;;;;12.76;83.50;95378.06;1704815;84;21035;-82
2022/09/12 05:46:58;;;;;;;4.40;3.42;;;;;;;12.77;82.97;95375.80;1704930;84;21012;-78
2022/09/12 05:49:25;;;;;;;5.08;3.22;;;;;;;12.78;82.76;95374.91;1705003;84;21032;-77
2022/09/12 05:51:52;;;;;;;3.30;2.77;;;;;;;12.74;82.48;95377.23;1704494;84;21016;-81
2022/09/12 05:54:20;;;;;;;6.65;3.17;;;;;;;12.70;82.71;95374.25;1704287;84;21079;-82
2022/09/12 05:56:47;;;;;;;7.05;3.02;;;;;;;12.64;82.52;95380.61;1704735;84;21095;-79
2022/09/12 05:59:20;;;;;;;5.50;2.85;;;;;;;12.58;80.75;95387.42;1704328;84;21020;-77
2022/09/12 06:01:48;;;;;;;4.17;2.83;;;;;;;12.60;80.94;95383.39;1704252;84;21051;-86
2022/09/12 06:04:14;;;;;;;228.52;96.05;;;;;;;12.67;81.65;95384.94;1704682;84;21032;-85
2022/09/12 06:06:46;;;;;;;102.62;63.70;;;;;;;12.66;80.23;95378.79;1711975;84;21564;-75
2022/09/12 06:09:15;;;;;;;4.45;3.37;;;;;;;12.80;80.31;95381.47;1712404;83;21518;-70
2022/09/12 06:11:44;;;;;;;10.00;9.10;;;;;;;12.89;79.62;95377.22;1711795;83;21062;-79
2022/09/12 06:14:14;;;;;;;6.35;3.60;;;;;;;12.91;78.71;95370.09;1711994;84;21028;-74
2022/09/12 06:16:41;;;;;;;11.97;10.70;;;;;;;12.94;80.34;95380.59;1712120;84;21016;-74
2022/09/12 06:19:26;;;;;;;6.28;3.55;;;;;;;12.98;79.88;95376.94;1711902;84;21492;-80
2022/09/12 06:21:53;;;;;;;3.77;2.65;;;;;;;13.06;80.60;95384.18;1711155;84;21035;-82
2022/09/12 06:24:21;;;;;;;6.05;3.47;;;;;;;13.24;80.25;95385.38;1711807;83;21194;-77
2022/09/12 06:26:51;;;;;;;3.27;2.50;;;;;;;13.37;80.38;95384.08;1712854;83;21067;-78
2022/09/12 06:29:18;;;;;;;5.83;2.52;;;;;;;13.49;79.97;95385.47;1713019;83;21088;-77
2022/09/12 06:31:45;;;;;;;3.37;2.72;;;;;;;13.48;75.99;95382.42;1712292;83;21035;-75
2022/09/12 06:34:14;;;;;;;2.75;2.55;;;;;;;13.59;74.19;95380.73;1712071;84;21134;-87
2022/09/12 06:36:46;;;;;;;3.30;3.00;;;;;;;13.68;75.25;95384.84;1712684;84;20988;-82
2022/09/12 06:39:21;;;;;;;3.25;2.87;;;;;;;13.70;74.16;95389.64;1712847;84;21076;-79
2022/09/12 06:41:50;;;;;;;5.62;2.55;;;;;;;13.76;74.28;95386.80;1712943;84;21545;-76
2022/09/12 06:44:19;;;;;;;5.08;3.47;;;;;;;13.81;74.20;95390.16;1712983;84;21035;-80
2022/09/12 06:46:46;;;;;;;4.33;3.08;;;;;;;13.72;71.67;95387.80;1712862;83;20972;-76
2022/09/12 06:49:13;;;;;;;6.28;2.80;;;;;;;13.90;75.22;95394.26;1711133;84;21143;-77
2022/09/12 06:51:41;;;;;;;5.60;2.87;;;;;;;13.90;75.22;95394.26;1711380;83;21051;-76
2022/09/12 06:54:11;;;;;;;5.28;3.40;;;;;;;13.87;73.00;95395.23;1711296;83;21051;-78
2022/09/12 06:56:38;;;;;;;4.60;2.77;;;;;;;13.93;71.60;95397.66;1711940;84;21009;-81
2022/09/12 06:59:05;;;;;;;4.78;2.60;;;;;;;13.93;71.60;95397.66;1712648;84;21012;-76
2022/09/12 07:01:32;;;;;;;3.08;2.70;;;;;;;13.97;67.41;95397.97;1711935;83;21115;-79
2022/09/12 07:04:02;;;;;;;5.33;4.83;;;;;;;13.97;67.41;95397.97;1683913;84;21020;-78
2022/09/12 07:06:40;;;;;;;9.05;6.58;;;;;;;14.00;68.44;95402.30;1712991;83;21011;-73
2022/09/12 07:09:12;;;;;;;5.40;2.83;;;;;;;14.09;69.00;95398.47;1711997;83;21097;-72
2022/09/12 07:11:40;;;;;;;23.73;18.55;;;;;;;14.09;69.51;95401.98;1712858;84;21035;-78
2022/09/12 07:14:12;;;;;;;5.85;4.30;;;;;;;14.09;69.51;95401.98;1712874;83;21518;-76
2022/09/12 07:16:39;;;;;;;4.80;3.02;;;;;;;14.08;66.97;95416.16;1712540;83;21608;-76
2022/09/12 07:19:07;;;;;;;4.03;2.87;;;;;;;14.07;66.69;95415.30;1712723;84;21074;-77
2022/09/12 07:21:38;;;;;;;6.85;2.98;;;;;;;14.10;66.29;95414.78;1712517;83;21568;-73
2022/09/12 07:24:03;;;;;;;3.67;3.35;;;;;;;14.09;67.16;95413.92;1712056;84;21079;-80
2022/09/12 07:26:31;;;;;;;4.00;3.20;;;;;;;14.09;67.16;95413.92;1712956;83;21123;-76
2022/09/12 07:28:58;;;;;;;3.45;3.05;;;;;;;14.17;68.37;95420.28;1712321;83;21054;-72
2022/09/12 07:31:27;;;;;;;5.08;3.08;;;;;;;14.11;65.84;95425.36;1712430;83;21117;-81
2022/09/12 07:33:54;;;;;;;4.30;3.12;;;;;;;14.11;65.84;95425.36;1713338;83;21039;-73
2022/09/12 07:36:24;;;;;;;4.12;2.72;;;;;;;14.03;66.54;95424.27;1712591;83;21063;-78
2022/09/12 07:38:55;;;;;;;3.02;2.67;;;;;;;14.03;66.14;95424.73;1711896;83;21532;-76
2022/09/12 07:41:26;;;;;;;5.97;3.15;;;;;;;14.04;66.36;95426.48;1712855;84;21047;-82
2022/09/12 07:43:57;;;;;;;3.42;3.12;;;;;;;14.09;66.74;95427.66;1712864;84;21512;-76
2022/09/12 07:46:26;;;;;;;6.67;3.67;;;;;;;14.04;66.04;95420.71;1712199;83;21075;-78
2022/09/12 07:48:56;;;;;;;4.72;3.27;;;;;;;14.02;67.00;95430.50;1712367;84;21542;-79
2022/09/12 07:51:25;;;;;;;5.80;3.47;;;;;;;14.04;67.34;95426.48;1712724;84;21067;-79
2022/09/12 07:53:52;;;;;;;3.75;3.25;;;;;;;14.04;67.34;95426.48;1713114;83;20999;-78
2022/09/12 07:56:20;;;;;;;3.35;3.05;;;;;;;14.13;66.84;95428.80;1712876;83;21068;-75
2022/09/12 07:58:47;;;;;;;3.47;3.17;;;;;;;14.18;66.38;95432.16;1713190;84;21008;-77
2022/09/12 08:01:19;;;;;;;6.20;5.08;;;;;;;14.28;66.28;95440.19;1713078;83;21513;-76
2022/09/12 08:03:48;;;;;;;6.22;4.05;;;;;;;14.28;66.28;95440.19;1712159;84;21560;-75
2022/09/12 08:06:19;;;;;;;7.33;3.62;;;;;;;14.45;67.37;95435.61;1712190;84;21047;-77
2022/09/12 08:08:47;;;;;;;4.80;3.67;;;;;;;14.57;63.39;95434.81;1712116;83;21580;-78
2022/09/12 08:11:17;;;;;;;5.43;3.00;;;;;;;14.57;63.39;95434.81;1712498;83;21027;-80
2022/09/12 08:13:46;;;;;;;3.55;3.17;;;;;;;14.53;63.04;95427.84;1713261;83;21501;-75
2022/09/12 08:16:20;;;;;;;4.37;3.35;;;;;;;14.45;61.56;95430.30;1711859;83;21633;-72
2022/09/12 08:18:48;;;;;;;4.33;3.37;;;;;;;14.48;62.75;95424.88;1712518;84;21141;-71
2022/09/12 08:21:20;;;;;;;3.80;3.40;;;;;;;14.58;64.01;95425.44;1711487;84;21082;-76
2022/09/12 08:23:49;;;;;;;3.60;3.25;;;;;;;14.67;63.48;95421.59;1712575;84;21015;-82
2022/09/12 08:26:15;;;;;;;4.40;3.37;;;;;;;14.79;64.65;95418.92;1711710;83;21088;-78
2022/09/12 08:28:44;;;;;;;5.53;3.20;;;;;;;14.98;63.65;95413.78;1713126;83;21514;-73
2022/09/12 08:31:15;;;;;;;4.05;3.42;;;;;;;15.23;63.78;95404.39;1712549;83;21510;-74
2022/09/12 08:33:42;;;;;;;4.62;3.45;;;;;;;15.58;63.32;95410.94;1713124;84;21059;-73
2022/09/12 08:36:18;;;;;;;3.72;3.33;;;;;;;15.77;61.61;95403.08;1712571;83;21087;-73
2022/09/12 08:38:48;;;;;;;5.58;3.42;;;;;;;15.73;60.91;95405.02;1683889;84;21078;-74
2022/09/12 08:41:29;;;;;;;4.53;3.60;;;;;;;15.52;58.30;95406.75;1713252;84;21470;-72
2022/09/12 08:44:10;;;;;;;4.87;3.27;;;;;;;15.61;59.75;95408.14;1713257;84;21023;-74
2022/09/12 08:47:10;;;;;;;3.60;3.30;;;;;;;15.71;59.61;95404.20;1713083;84;21011;-78
2022/09/12 08:50:00;;;;;;;7.50;3.47;;;;;;;15.88;59.84;95398.19;1713308;84;21067;-78
2022/09/12 08:52:53;;;;;;;6.75;3.37;;;;;;;16.01;57.64;95394.53;1713230;83;21032;-83
2022/09/12 08:55:31;;;;;;;5.75;3.72;;;;;;;16.14;58.56;95389.54;1713215;83;21123;-76
2022/09/12 08:58:02;;;;;;;6.25;3.50;;;;;;;16.28;59.48;95389.81;1712996;83;21055;-83
2022/09/12 09:00:54;;;;;;;3.37;3.08;;;;;;;16.29;59.56;95399.52;1710990;83;21059;-83
2022/09/12 09:03:43;;;;;;;4.03;3.15;;;;;;;16.31;58.47;95395.47;1704097;84;21590;-86
2022/09/12 09:06:35;;;;;;;3.25;2.95;;;;;;;16.34;58.69;95386.00;1675918;84;21037;-75
2022/09/12 09:09:41;;;;;;;4.00;3.00;;;;;;;16.34;57.87;95392.66;1704166;84;21037;-77
2022/09/12 09:12:56;;;;;;;6.00;3.15;;;;;;;16.55;57.41;95389.02;1704831;84;21009;-77
2022/09/12 09:15:40;;;;;;;5.12;3.10;;;;;;;16.70;55.86;95380.80;1640643;86;21519;-77
2022/09/12 09:18:28;;;;;;;4.00;3.60;;;;;;;16.91;56.14;95372.77;1671635;86;21004;-77
2022/09/12 09:21:02;;;;;;;5.45;3.10;;;;;;;16.97;55.85;95370.69;1731206;81;21067;-77
2022/09/12 09:23:39;;;;;;;6.17;2.90;;;;;;;17.11;55.23;95369.16;1748485;82;21517;-77
2022/09/12 09:26:28;;;;;;;4.47;3.42;;;;;;;17.13;53.77;95365.48;1748599;81;21014;-77
2022/09/12 09:29:02;;;;;;;4.47;3.08;;;;;;;17.32;56.10;95368.14;1748535;82;20999;-77
2022/09/12 09:31:38;;;;;;;3.37;3.08;;;;;;;17.53;54.96;95379.08;1748628;82;21485;-76
2022/09/12 09:34:21;;;;;;;6.83;3.27;;;;;;;17.69;54.58;95374.34;1713202;83;21027;-77
2022/09/12 09:37:41;;;;;;;3.12;2.83;;;;;;;17.76;54.15;95374.87;1749315;82;21115;-74
2022/09/12 09:40:15;;;;;;;4.87;3.00;;;;;;;17.87;53.92;95378.78;1713304;83;21003;-74
2022/09/12 09:43:06;;;;;;;2.92;2.58;;;;;;;17.95;54.25;95371.71;1711632;84;21571;-74
2022/09/12 09:45:33;;;;;;;4.37;2.75;;;;;;;18.02;53.47;95374.95;1712892;84;20999;-74
2022/09/12 09:48:27;;;;;;;3.90;3.10;;;;;;;17.94;52.51;95376.64;1748802;81;21020;-74
2022/09/12 09:50:55;;;;;;;6.45;3.12;;;;;;;17.90;55.17;95378.61;1713353;83;21007;-74
2022/09/12 09:53:49;;;;;;;3.62;3.20;;;;;;;17.95;52.57;95375.72;1712092;84;21066;-74
2022/09/12 09:56:35;;;;;;;;;;;;;;;17.74;52.86;95374.98;1750764;82;21051;-74
2022/09/12 09:59:29;;;;;;;6.92;2.60;;;;;;;17.48;52.88;95366.44;1747815;81;20124;-74
2022/09/12 10:02:22;;;;;;;5.80;2.87;;;;;;;17.27;53.86;95375.50;1712419;83;21086;-74
2022/09/12 10:04:56;;;;;;;4.22;2.55;;;;;;;17.30;55.44;95366.87;1748435;81;21093;-74
2022/09/12 10:07:24;;;;;;;4.05;2.87;;;;;;;17.36;55.66;95364.41;1713056;84;21038;-73
2022/09/12 10:10:08;;;;;;;4.37;2.83;;;;;;;17.66;56.49;95356.65;1749237;81;21529;-73
2022/09/12 10:12:35;;;;;;;3.92;2.95;;;;;;;18.05;55.32;95357.42;1712283;83;20999;-73
2022/09/12 10:15:22;;;;;;;5.20;2.83;;;;;;;18.34;53.10;95344.75;1749110;81;20960;-73
2022/09/12 10:17:50;;;;;;;5.65;2.77;;;;;;;18.26;51.99;95357.63;1713341;84;20991;-74
2022/09/12 10:20:40;;;;;;;3.55;2.70;;;;;;;18.09;52.55;95357.20;1748972;81;21015;-74
2022/09/12 10:23:39;;;;;;;4.28;2.65;;;;;;;18.11;53.76;95359.77;1748721;81;21062;-73
2022/09/12 10:26:13;;;;;;;4.10;2.60;;;;;;;18.35;53.29;95361.16;1741982;82;21088;-74
2022/09/12 10:28:53;;;;;;;3.02;2.72;;;;;;;18.70;51.37;95353.55;1713335;83;21006;-73
2022/09/12 10:31:38;;;;;;;5.03;2.70;;;;;;;19.02;51.50;95350.44;1749124;81;21007;-74
2022/09/12 10:34:05;;;;;;;3.60;2.50;;;;;;;19.29;51.24;95351.19;1712624;84;21027;-74
2022/09/12 10:36:37;;;;;;;3.70;2.83;;;;;;;19.38;50.75;95346.67;1748975;82;21019;-74
2022/09/12 10:39:05;;;;;;;;;;;;;;;19.24;50.31;95353.64;1715961;83;20991;-74
2022/09/12 10:41:38;;;;;;;3.85;2.50;;;;;;;19.30;50.25;95353.76;1699554;84;20122;-73
2022/09/12 10:44:09;;;;;;;4.15;2.50;;;;;;;19.50;49.63;95355.30;1699944;84;21008;-73
2022/09/12 10:46:35;;;;;;;5.45;2.83;;;;;;;19.70;49.31;95350.16;1700086;84;21064;-74
2022/09/12 10:49:25;;;;;;;4.37;2.98;;;;;;;19.92;49.93;95352.45;1700018;84;21065;-74
2022/09/12 10:51:54;;;;;;;4.28;2.70;;;;;;;20.06;49.09;95355.66;1700041;84;21083;-73
2022/09/12 10:54:25;;;;;;;7.22;2.67;;;;;;;20.01;47.06;95352.39;1700017;84;21001;-74
2022/09/12 10:57:20;;;;;;;4.62;2.70;;;;;;;19.96;47.51;95354.45;1700021;84;21580;-74
2022/09/12 11:00:16;;;;;;;2.85;2.62;;;;;;;19.96;46.90;95355.34;1700116;84;21008;-73
2022/09/12 11:03:24;;;;;;;4.78;2.70;;;;;;;19.67;47.21;95357.04;1701481;84;21040;-74
2022/09/12 11:06:00;;;;;;;3.05;2.60;;;;;;;19.73;46.37;95353.14;1704721;84;21048;-74
2022/09/12 11:08:38;;;;;;;3.22;2.60;;;;;;;19.45;47.05;95360.94;1705228;84;21147;-73
2022/09/12 11:11:44;;;;;;;5.20;2.62;;;;;;;19.31;47.65;95367.55;1705253;84;21075;-73
2022/09/12 11:14:45;;;;;;;3.85;2.75;;;;;;;19.11;47.36;95361.12;1705414;84;21075;-72
2022/09/12 11:17:26;;;;;;;3.92;2.83;;;;;;;18.93;48.40;95362.52;1704704;84;21579;-73
2022/09/12 11:20:22;;;;;;;3.72;2.87;;;;;;;18.73;49.06;95368.07;1705142;84;21513;-73
2022/09/12 11:23:06;;;;;;;3.77;2.55;;;;;;;18.84;49.23;95361.69;1704639;84;21067;-73
2022/09/12 11:25:59;;;;;;;2.67;2.42;;;;;;;18.98;48.79;95370.30;1704076;84;21032;-73
2022/09/12 11:28:46;;;;;;;3.40;2.72;;;;;;;18.92;48.99;95372.81;1694562;84;21040;-73
2022/09/12 11:31:33;;;;;;;3.70;2.80;;;;;;;18.76;49.75;95369.27;1704521;84;21064;-73
2022/09/12 11:34:05;;;;;;;4.05;2.77;;;;;;;18.66;49.23;95370.68;1712159;84;21032;-73
2022/09/12 11:36:46;;;;;;;7.67;3.40;;;;;;;18.66;49.28;95372.02;1713022;84;21016;-73
2022/09/12 11:39:27;;;;;;;4.15;2.70;;;;;;;18.64;50.12;95369.41;1713339;83;21012;-73
2022/09/12 11:42:01;;;;;;;5.75;2.72;;;;;;;18.68;50.77;95371.47;1711479;84;21079;-73
2022/09/12 11:44:35;;;;;;;7.03;3.67;;;;;;;18.64;50.29;95370.75;1713211;84;21023;-73
2022/09/12 11:47:12;;;;;;;3.30;2.90;;;;;;;18.51;50.10;95375.89;1712976;84;21602;-73
2022/09/12 11:49:47;;;;;;;3.67;2.75;;;;;;;18.48;50.20;95374.72;1713075;84;21055;-73
2022/09/12 11:52:19;;;;;;;3.50;2.30;;;;;;;18.52;49.95;95374.96;1713114;84;21023;-73
2022/09/12 11:55:09;;;;;;;2.70;2.50;;;;;;;18.36;49.35;95385.58;1680634;84;21073;-72
2022/09/12 11:57:57;;;;;;;8.33;2.80;;;;;;;18.24;49.20;95378.20;1707201;83;21016;-73
2022/09/12 12:00:37;;;;;;;2.75;2.52;;;;;;;18.43;50.62;95382.12;1712323;84;21003;-73
2022/09/12 12:03:34;;;;;;;6.00;2.30;;;;;;;18.90;49.21;95377.85;1712956;83;21047;-73
2022/09/12 12:06:25;;;;;;;4.33;2.20;;;;;;;19.41;47.82;95375.44;1713156;83;21038;-74
2022/09/12 12:08:53;;;;;;;5.25;2.22;;;;;;;19.99;45.78;95371.70;1713369;83;21047;-73
2022/09/12 12:11:34;;;;;;;4.67;2.35;;;;;;;20.03;46.08;95375.45;1713320;83;20983;-74